Airport Name : Cambridge Bay

Other Name : Cambridge Bay

ICAO : CYCB

IATA : YCB

FAA :

Latitude : 69.108055

Longitude : -105.138333

Country : Canada

Local Date and Time : 10/23/2018 12:54:00 AM

 

TAF (Terminal Aerodrome Forecast)

TAF CYCB 230638Z 2307/2319 07008KT 3SM -SN BR OVC008 TEMPO 2307/2315 1SM -SN BR OVC003 FM231500 11012KT P6SM OVC010 TEMPO 2315/2319 3SM -SN BR OVC006 RMK NXT FCST BY 231300Z

 

METAR (METeorological Aerodrome Report)

CYCB 230600Z 09010KT 3SM -SN BR OVC003 M20/M23 A3042 RMK ST8 VIS VRB 2-4 FROIN SLP307

CYCB 230500Z 08005KT 3SM -SN BR OVC003 M20/M23 A3040 RMK ST8 VIS VRB 2-4 SLP302

CYCB 230431Z 08009KT 3SM -SN BR OVC003 M19/M22 A3040 RMK ST8 VIS VRB 2-4 SLP300

CYCB 230400Z 08009KT 4SM IC BR OVC005 M19/M22 A3040 RMK ST8 FROIN SLP302

CYCB 230300Z 08007KT 5SM IC BR BKN005 M19/M22 A3040 RMK ST7 FROIN SLP300